Terminal Aerodrome Forecast
Issued by NWS

Home | Current Version | Previous Version | Text Only | Print | Product List | Glossary On
Versions: 1 2 3 4 5 6 7 8 9 10 11 12 13 14 15 16
000
FTUS42 KTBW 212300
TAFRSW
TAF
KRSW 212336Z 2200/2224 VRB03KT P6SM SCT030 BKN100 OVC250
     FM220600 VRB03KT P6SM FEW030 BKN250
     FM220900 00000KT P6SM SCT250
     FM221500 04004KT P6SM SCT250
     FM221800 12005KT P6SM VCSH SCT040 SCT250=

USA.gov is the U.S. government's official web portal to all federal, state and local government web resources and services.